Time;durP1;ratioP1;P1;durP2;ratioP2;P2;SDS_P1;SDS_P2;PMS_P1;PMS_P2;Temp;Humidity;BMP_temperature;BMP_pressure;BME280_temperature;BME280_humidity;BME280_pressure;Samples;Min_cycle;Max_cycle;Signal;HPM_P1;HPM_P2
2023/08/20 00:01:31;;;;;;;5.88;4.75;;;24.10;99.90;24.30;100859.00;;;;4934260;28;92049;-67
2023/08/20 00:03:57;;;;;;;10.45;7.32;;;24.10;99.90;24.30;100857.00;;;;4943942;28;94166;-67
2023/08/20 00:06:24;;;;;;;6.55;5.90;;;24.10;99.90;24.20;100858.00;;;;4934463;28;108870;-67
2023/08/20 00:08:50;;;;;;;9.20;6.35;;;24.00;99.90;24.20;100857.00;;;;4936384;28;93920;-67
2023/08/20 00:11:16;;;;;;;13.15;8.35;;;24.00;99.90;24.10;100849.00;;;;4935221;28;94498;-67
2023/08/20 00:13:42;;;;;;;10.23;7.70;;;24.00;99.90;24.10;100848.00;;;;4938152;28;93143;-66
2023/08/20 00:16:09;;;;;;;7.60;6.30;;;23.90;99.90;24.10;100855.00;;;;4936493;28;93585;-67
2023/08/20 00:18:35;;;;;;;8.38;5.95;;;23.90;99.90;24.10;100868.00;;;;4935333;28;110934;-66
2023/08/20 00:21:00;;;;;;;8.27;6.40;;;23.90;99.90;24.10;100870.00;;;;4940284;28;93191;-67
2023/08/20 00:23:27;;;;;;;10.65;6.80;;;23.80;99.90;24.10;100859.00;;;;4947514;28;101681;-66
2023/08/20 00:25:53;;;;;;;11.07;7.72;;;23.90;99.90;24.10;100854.00;;;;4934715;28;93234;-67
2023/08/20 00:28:20;;;;;;;9.27;6.90;;;23.90;99.90;24.10;100850.00;;;;4930862;28;103524;-66
2023/08/20 00:30:46;;;;;;;7.97;6.00;;;23.90;99.90;24.10;100856.00;;;;4937311;28;111167;-67
2023/08/20 00:33:12;;;;;;;12.55;7.07;;;23.80;99.90;24.10;100857.00;;;;4934051;28;93981;-66
2023/08/20 00:35:37;;;;;;;8.68;6.50;;;23.80;99.90;24.00;100857.00;;;;4936211;28;122074;-67
2023/08/20 00:38:03;;;;;;;6.70;5.95;;;23.80;99.90;24.00;100863.00;;;;4934986;28;123579;-67
2023/08/20 00:40:30;;;;;;;8.02;5.95;;;23.80;99.90;24.10;100859.00;;;;4931288;28;110578;-66
2023/08/20 00:42:56;;;;;;;7.53;5.88;;;23.80;99.90;24.10;100875.00;;;;4945247;28;93261;-67
2023/08/20 00:45:23;;;;;;;11.35;6.88;;;23.80;99.90;24.10;100875.00;;;;4938839;28;122946;-67
2023/08/20 00:47:49;;;;;;;8.15;6.00;;;23.90;99.90;24.20;100866.00;;;;4936150;28;94171;-67
2023/08/20 00:50:15;;;;;;;9.13;6.63;;;23.90;99.90;24.20;100861.00;;;;4949777;28;110533;-67
2023/08/20 00:52:41;;;;;;;8.50;5.35;;;24.00;99.90;24.20;100865.00;;;;4936046;28;108521;-66
2023/08/20 00:55:12;;;;;;;10.93;6.03;;;23.90;99.90;24.20;100864.00;;;;4930675;28;104916;-67
2023/08/20 00:57:39;;;;;;;7.75;6.10;;;24.00;99.90;24.20;100866.00;;;;4933082;28;93934;-67
2023/08/20 01:00:08;;;;;;;7.78;6.50;;;24.00;99.90;24.20;100866.00;;;;4941104;28;92986;-67
2023/08/20 01:02:35;;;;;;;7.38;6.63;;;24.00;99.90;24.20;100851.00;;;;4937909;28;93252;-68
2023/08/20 01:05:04;;;;;;;9.85;7.70;;;24.00;99.90;24.20;100864.00;;;;4935005;28;92763;-66
2023/08/20 01:07:43;;;;;;;12.05;7.70;;;24.00;99.90;24.10;100861.00;;;;4933227;28;93978;-67
2023/08/20 01:11:03;;;;;;;9.18;6.60;;;24.00;99.90;24.10;100857.00;;;;4933093;28;93014;-67
2023/08/20 01:13:32;;;;;;;9.02;6.25;;;23.90;99.90;24.20;100865.00;;;;4925218;28;93003;-66
2023/08/20 01:15:58;;;;;;;9.18;6.13;;;23.90;99.90;24.20;100862.00;;;;4936267;28;120110;-67
2023/08/20 01:18:24;;;;;;;7.93;6.63;;;24.00;99.90;24.20;100870.00;;;;4933582;28;121840;-67
2023/08/20 01:20:59;;;;;;;8.05;6.38;;;24.00;99.90;24.20;100874.00;;;;4944538;28;93088;-67
2023/08/20 01:23:49;;;;;;;10.15;7.18;;;24.00;99.90;24.20;100874.00;;;;4934672;28;93813;-67
2023/08/20 01:26:45;;;;;;;7.03;5.15;;;24.00;99.90;24.20;100885.00;;;;4933833;28;93963;-67
2023/08/20 01:29:12;;;;;;;9.07;6.05;;;24.10;99.90;24.30;100872.00;;;;4933173;28;113557;-66
2023/08/20 01:31:38;;;;;;;7.47;5.65;;;24.10;99.90;24.30;100870.00;;;;4932484;28;110852;-66
2023/08/20 01:34:04;;;;;;;8.00;6.30;;;24.10;99.90;24.30;100875.00;;;;4929097;28;109807;-66
2023/08/20 01:36:30;;;;;;;11.65;6.97;;;24.10;99.90;24.30;100883.00;;;;4933956;28;123014;-66
2023/08/20 01:38:56;;;;;;;6.72;5.13;;;24.10;99.90;24.40;100877.00;;;;4943588;28;106828;-66
2023/08/20 01:41:21;;;;;;;8.38;6.10;;;24.10;99.90;24.40;100889.00;;;;4933806;28;92250;-66
2023/08/20 01:43:47;;;;;;;8.38;6.50;;;24.20;99.90;24.40;100891.00;;;;4933550;28;97907;-66
2023/08/20 01:46:13;;;;;;;9.05;6.15;;;24.10;99.90;24.30;100893.00;;;;4934775;28;93974;-66
2023/08/20 01:48:38;;;;;;;7.07;6.05;;;24.10;99.90;24.30;100898.00;;;;4932932;28;123431;-66
2023/08/20 01:51:04;;;;;;;8.05;6.55;;;24.10;99.90;24.30;100907.00;;;;4933268;28;111440;-66
2023/08/20 01:53:30;;;;;;;7.82;5.18;;;24.10;99.90;24.20;100898.00;;;;4933938;28;109196;-66
2023/08/20 01:55:55;;;;;;;7.50;6.18;;;24.10;99.90;24.20;100908.00;;;;4934601;28;94160;-66
2023/08/20 01:58:21;;;;;;;6.80;6.10;;;24.00;99.90;24.20;100916.00;;;;4939992;28;93693;-67
2023/08/20 02:00:47;;;;;;;7.43;6.07;;;24.00;99.90;24.20;100912.00;;;;4932181;28;111412;-66
2023/08/20 02:03:13;;;;;;;6.55;5.93;;;24.00;99.90;24.10;100914.00;;;;4933172;28;92930;-66
2023/08/20 02:05:38;;;;;;;8.40;5.75;;;24.00;99.90;24.10;100904.00;;;;4933540;28;111705;-67
2023/08/20 02:08:05;;;;;;;9.25;5.88;;;23.90;99.90;24.10;100914.00;;;;4933042;28;101352;-67
2023/08/20 02:10:30;;;;;;;11.35;5.72;;;23.90;99.90;24.10;100920.00;;;;4934829;28;92706;-66
2023/08/20 02:12:56;;;;;;;8.07;6.00;;;23.90;99.90;24.00;100919.00;;;;4933453;28;107753;-66
2023/08/20 02:15:21;;;;;;;8.15;5.57;;;23.90;99.90;24.00;100927.00;;;;4944418;28;123106;-67
2023/08/20 02:17:47;;;;;;;8.60;5.93;;;23.80;99.90;24.00;100921.00;;;;4932465;28;121400;-66
2023/08/20 02:20:13;;;;;;;13.48;5.85;;;23.80;99.90;24.00;100922.00;;;;4931583;28;111555;-66
2023/08/20 02:22:38;;;;;;;6.05;5.35;;;23.80;99.90;24.00;100934.00;;;;4933313;28;93693;-66
2023/08/20 02:25:04;;;;;;;8.27;6.35;;;23.80;99.90;24.00;100924.00;;;;4932343;28;123908;-66
2023/08/20 02:27:30;;;;;;;8.32;5.32;;;23.80;99.90;23.90;100925.00;;;;4931965;28;93921;-66
2023/08/20 02:29:56;;;;;;;8.82;5.32;;;23.70;99.90;23.90;100923.00;;;;4931275;28;92056;-66
2023/08/20 02:32:21;;;;;;;7.85;6.03;;;23.70;99.90;23.80;100923.00;;;;4933928;28;107629;-66
2023/08/20 02:34:51;;;;;;;8.48;6.43;;;23.60;99.90;23.70;100927.00;;;;4940561;28;124085;-66
2023/08/20 02:37:17;;;;;;;8.02;5.63;;;23.60;99.90;23.70;100914.00;;;;4930344;28;94361;-66
2023/08/20 02:39:42;;;;;;;7.18;5.40;;;23.50;99.90;23.70;100930.00;;;;4930831;28;92773;-66
2023/08/20 02:42:08;;;;;;;7.00;5.97;;;23.50;99.90;23.60;100920.00;;;;4928944;28;108424;-66
2023/08/20 02:44:34;;;;;;;7.05;5.47;;;23.50;99.90;23.60;100931.00;;;;4929560;28;123219;-66
2023/08/20 02:46:59;;;;;;;6.70;5.82;;;23.40;99.90;23.50;100924.00;;;;4929020;28;121895;-66
2023/08/20 02:49:25;;;;;;;7.75;5.60;;;23.40;99.90;23.50;100919.00;;;;4930342;28;111204;-66
2023/08/20 02:51:51;;;;;;;9.13;6.43;;;23.30;99.90;23.40;100922.00;;;;4930787;28;108460;-66
2023/08/20 02:54:16;;;;;;;4.80;4.30;;;23.30;99.90;23.30;100919.00;;;;4931062;28;121156;-66
2023/08/20 02:56:42;;;;;;;8.15;5.97;;;23.20;99.90;23.30;100917.00;;;;4929105;28;121549;-66
2023/08/20 02:59:08;;;;;;;10.13;6.32;;;23.10;99.90;23.20;100922.00;;;;4930280;28;109890;-66
2023/08/20 03:01:33;;;;;;;11.75;8.10;;;23.10;99.90;23.20;100927.00;;;;4927726;28;106962;-66
2023/08/20 03:03:59;;;;;;;7.53;5.47;;;23.00;99.90;23.10;100924.00;;;;4927888;28;122634;-66
2023/08/20 03:06:24;;;;;;;7.10;5.78;;;23.00;99.90;23.10;100915.00;;;;4929658;28;121931;-67
2023/08/20 03:08:50;;;;;;;9.05;5.70;;;22.90;99.90;23.00;100926.00;;;;4915898;28;107105;-66
2023/08/20 03:11:22;;;;;;;9.77;6.43;;;22.90;99.90;23.00;100925.00;;;;4929007;28;109623;-66
2023/08/20 03:13:47;;;;;;;7.13;4.65;;;22.80;99.90;22.90;100916.00;;;;4928816;28;122335;-66
2023/08/20 03:16:13;;;;;;;8.63;5.53;;;22.80;99.90;22.90;100927.00;;;;4928199;28;123770;-66
2023/08/20 03:18:39;;;;;;;8.32;5.60;;;22.70;99.90;22.90;100929.00;;;;4930247;28;111557;-66
2023/08/20 03:21:04;;;;;;;7.75;4.78;;;22.70;99.90;22.90;100929.00;;;;4930308;28;109367;-66
2023/08/20 03:23:30;;;;;;;9.32;5.90;;;22.70;99.90;22.80;100929.00;;;;4926853;28;121997;-66
2023/08/20 03:25:59;;;;;;;8.73;5.70;;;22.70;99.90;22.80;100932.00;;;;4930027;28;109078;-66
2023/08/20 03:28:25;;;;;;;8.68;6.05;;;22.60;99.90;22.70;100925.00;;;;4928737;28;93401;-66
2023/08/20 03:30:50;;;;;;;6.82;5.68;;;22.60;99.90;22.70;100930.00;;;;4930155;28;108512;-66
2023/08/20 03:33:16;;;;;;;7.20;5.57;;;22.50;99.90;22.70;100938.00;;;;4928474;28;123318;-67
2023/08/20 03:35:43;;;;;;;10.30;6.40;;;22.50;99.90;22.60;100940.00;;;;4932205;28;93094;-66
2023/08/20 03:38:08;;;;;;;7.80;5.45;;;22.50;99.90;22.60;100938.00;;;;4930297;28;93270;-66
2023/08/20 03:40:34;;;;;;;9.00;5.88;;;22.40;99.90;22.60;100930.00;;;;4930134;28;108145;-67
2023/08/20 03:43:00;;;;;;;8.02;5.60;;;22.40;99.90;22.60;100936.00;;;;4930171;28;120954;-65
2023/08/20 03:45:27;;;;;;;5.70;5.18;;;22.40;99.90;22.60;100935.00;;;;4930980;28;122664;-66
2023/08/20 03:47:53;;;;;;;6.93;6.07;;;22.40;99.90;22.60;100942.00;;;;4929606;28;92911;-66
2023/08/20 03:50:19;;;;;;;7.97;5.70;;;22.40;99.90;22.60;100947.00;;;;4931311;28;95364;-66
2023/08/20 03:52:44;;;;;;;7.45;5.38;;;22.40;99.90;22.60;100948.00;;;;4927667;28;123653;-67
2023/08/20 03:55:10;;;;;;;5.75;4.50;;;22.40;99.90;22.60;100950.00;;;;4930639;28;122069;-65
2023/08/20 03:57:36;;;;;;;8.40;4.57;;;22.40;99.90;22.70;100946.00;;;;4930838;28;92919;-66
2023/08/20 04:00:03;;;;;;;6.38;4.57;;;22.50;99.90;22.70;100947.00;;;;4928446;28;108586;-66
2023/08/20 04:02:29;;;;;;;6.32;5.35;;;22.50;99.90;22.70;100949.00;;;;4932313;28;93951;-66
2023/08/20 04:04:57;;;;;;;7.72;5.95;;;22.50;99.90;22.70;100954.00;;;;4931306;28;122372;-67
2023/08/20 04:07:23;;;;;;;7.80;5.13;;;22.50;99.90;22.70;100950.00;;;;4947580;28;92175;-66
2023/08/20 04:09:49;;;;;;;7.13;4.43;;;22.50;99.90;22.70;100955.00;;;;4932507;28;106413;-65
2023/08/20 04:12:14;;;;;;;10.68;5.55;;;22.50;99.90;22.80;100956.00;;;;4930128;28;122527;-65
2023/08/20 04:14:40;;;;;;;5.75;5.22;;;22.60;99.90;22.70;100962.00;;;;4930546;28;123542;-65
2023/08/20 04:17:06;;;;;;;7.65;5.20;;;22.60;99.90;22.80;100968.00;;;;4930918;28;110440;-65
2023/08/20 04:19:31;;;;;;;8.02;4.93;;;22.60;99.90;22.80;100973.00;;;;4933109;28;109342;-68
2023/08/20 04:21:57;;;;;;;6.10;4.90;;;22.60;99.90;22.80;100974.00;;;;4930530;28;121408;-65
2023/08/20 04:24:23;;;;;;;6.00;5.40;;;22.60;99.90;22.80;100973.00;;;;4931875;28;121824;-67
2023/08/20 04:26:48;;;;;;;8.07;6.28;;;22.60;99.90;22.80;100973.00;;;;4932041;28;92847;-67
2023/08/20 04:29:14;;;;;;;7.20;4.32;;;22.60;99.90;22.80;100975.00;;;;4934408;28;102015;-65
2023/08/20 04:31:40;;;;;;;7.95;4.30;;;22.60;99.90;22.90;100977.00;;;;4935568;28;122821;-65
2023/08/20 04:34:05;;;;;;;7.15;4.45;;;22.60;99.90;22.90;100976.00;;;;4915759;28;120892;-65
2023/08/20 04:36:31;;;;;;;7.70;5.60;;;22.70;99.90;22.90;100970.00;;;;4934338;28;93013;-65
2023/08/20 04:38:57;;;;;;;7.65;5.68;;;22.70;99.90;23.00;100975.00;;;;4938659;28;93983;-66
2023/08/20 04:41:22;;;;;;;7.43;4.03;;;22.80;99.90;23.10;100977.00;;;;4932592;28;122135;-65
2023/08/20 04:43:48;;;;;;;5.35;4.03;;;22.80;99.90;23.10;100981.00;;;;4933169;28;106161;-65
2023/08/20 04:46:14;;;;;;;6.25;5.32;;;22.90;99.90;23.10;100984.00;;;;4931298;28;109958;-67
2023/08/20 04:48:40;;;;;;;7.80;4.93;;;23.00;99.90;23.20;100985.00;;;;4933194;28;93435;-67
2023/08/20 04:51:07;;;;;;;6.72;4.95;;;23.00;99.90;23.20;100986.00;;;;4930688;28;125851;-67
2023/08/20 04:53:33;;;;;;;8.38;5.75;;;23.00;99.90;23.20;100983.00;;;;4931703;28;93541;-67
2023/08/20 04:55:59;;;;;;;6.57;5.43;;;23.00;99.90;23.20;100986.00;;;;4932493;28;92259;-67
2023/08/20 04:58:25;;;;;;;6.35;4.80;;;23.00;99.90;23.20;100987.00;;;;4931590;28;93184;-67
2023/08/20 05:00:50;;;;;;;5.28;4.05;;;23.00;99.90;23.20;100987.00;;;;4932715;28;93847;-67
2023/08/20 05:03:16;;;;;;;4.35;3.95;;;23.00;99.90;23.20;100988.00;;;;4932562;28;121762;-66
2023/08/20 05:05:42;;;;;;;5.80;4.28;;;23.00;99.90;23.20;100993.00;;;;4936538;28;110148;-67
2023/08/20 05:08:07;;;;;;;4.32;3.88;;;23.00;99.90;23.30;100990.00;;;;4931092;28;109348;-67
2023/08/20 05:10:36;;;;;;;5.75;4.60;;;23.00;99.90;23.30;100994.00;;;;4930718;28;93221;-65
2023/08/20 05:13:03;;;;;;;9.52;5.68;;;23.10;99.90;23.40;101015.00;;;;4930870;28;94738;-65
2023/08/20 05:15:28;;;;;;;7.93;4.63;;;23.20;99.90;23.40;101012.00;;;;4932101;28;93140;-66
2023/08/20 05:17:54;;;;;;;7.07;5.68;;;23.20;99.90;23.50;101029.00;;;;4932457;28;109733;-67
2023/08/20 05:20:20;;;;;;;5.53;4.15;;;23.30;99.90;23.50;101019.00;;;;4933178;28;98081;-66
2023/08/20 05:22:46;;;;;;;6.60;4.85;;;23.30;99.90;23.60;101021.00;;;;4930349;28;93097;-67
2023/08/20 05:25:11;;;;;;;6.55;4.78;;;23.40;99.90;23.70;101022.00;;;;4929435;28;110727;-66
2023/08/20 05:27:37;;;;;;;6.90;5.22;;;23.50;99.90;23.80;101020.00;;;;4927627;28;107764;-66
2023/08/20 05:30:03;;;;;;;7.50;4.35;;;23.60;99.90;23.90;101004.00;;;;4926968;28;122964;-66
2023/08/20 05:32:29;;;;;;;7.25;5.28;;;23.60;99.90;24.10;101007.00;;;;4927895;28;93142;-66
2023/08/20 05:34:54;;;;;;;8.52;5.07;;;23.80;99.90;24.20;101013.00;;;;4926309;28;111539;-66
2023/08/20 05:37:20;;;;;;;9.98;4.43;;;23.90;99.90;24.40;101031.00;;;;4928643;28;93612;-66
2023/08/20 05:39:46;;;;;;;7.65;4.85;;;24.10;99.90;24.50;101040.00;;;;4927770;28;123369;-66
2023/08/20 05:42:12;;;;;;;8.10;4.80;;;24.20;99.90;24.60;101045.00;;;;4928123;28;94915;-66
2023/08/20 05:44:37;;;;;;;7.00;4.78;;;24.40;99.90;24.80;101042.00;;;;4929779;28;110089;-67
2023/08/20 05:47:05;;;;;;;6.15;4.60;;;24.60;99.90;25.00;101034.00;;;;4928088;28;108450;-65
2023/08/20 05:49:30;;;;;;;7.80;4.43;;;24.60;99.90;25.10;101038.00;;;;4931079;28;94000;-66
2023/08/20 05:51:56;;;;;;;6.25;4.15;;;24.80;99.90;25.20;101044.00;;;;4925666;28;106300;-65
2023/08/20 05:54:22;;;;;;;5.47;4.25;;;25.00;99.90;25.40;101056.00;;;;4929174;28;93053;-66
2023/08/20 05:56:47;;;;;;;5.13;3.35;;;25.10;99.90;25.60;101068.00;;;;4927416;28;92783;-66
2023/08/20 05:59:13;;;;;;;4.65;3.80;;;25.30;99.90;25.70;101071.00;;;;4927427;28;94047;-66
2023/08/20 06:01:39;;;;;;;6.05;4.57;;;25.40;99.90;25.80;101070.00;;;;4925057;28;122738;-66
2023/08/20 06:04:05;;;;;;;4.75;3.65;;;25.50;99.90;25.80;101084.00;;;;4926218;28;110757;-66
2023/08/20 06:06:30;;;;;;;3.97;3.60;;;25.60;99.90;25.80;101078.00;;;;4925441;28;99550;-66
2023/08/20 06:08:56;;;;;;;6.53;3.20;;;25.60;99.90;25.80;101087.00;;;;4924021;28;120771;-65
2023/08/20 06:11:22;;;;;;;4.78;3.20;;;25.60;99.90;25.90;101079.00;;;;4926963;28;93188;-65
2023/08/20 06:13:47;;;;;;;4.90;3.65;;;25.60;99.90;25.90;101081.00;;;;4926272;28;93380;-65
2023/08/20 06:16:13;;;;;;;3.60;3.15;;;25.60;99.90;25.90;101085.00;;;;4924398;28;93916;-65
2023/08/20 06:18:39;;;;;;;5.18;3.35;;;25.60;99.90;25.90;101089.00;;;;4926570;28;122238;-65
2023/08/20 06:21:04;;;;;;;4.90;3.72;;;25.60;99.90;25.90;101088.00;;;;4927148;28;123592;-65
2023/08/20 06:23:30;;;;;;;4.50;3.45;;;25.60;99.90;25.90;101092.00;;;;4926765;28;109894;-66
2023/08/20 06:25:56;;;;;;;5.55;3.50;;;25.60;99.90;25.90;101088.00;;;;4923825;28;106944;-64
2023/08/20 06:28:21;;;;;;;4.38;3.30;;;25.70;99.90;25.90;101085.00;;;;4924750;28;123668;-65
2023/08/20 06:30:47;;;;;;;4.45;3.22;;;25.60;99.90;25.90;101095.00;;;;4925517;28;101751;-67
2023/08/20 06:33:13;;;;;;;3.40;2.70;;;25.60;99.90;25.90;101081.00;;;;4925379;28;111042;-64
2023/08/20 06:35:39;;;;;;;2.97;2.70;;;25.60;99.90;25.90;101091.00;;;;4925958;28;108032;-65
2023/08/20 06:38:05;;;;;;;6.68;3.35;;;25.60;99.90;25.90;101092.00;;;;4929058;28;94199;-65
2023/08/20 06:40:31;;;;;;;4.45;3.03;;;25.60;99.90;25.80;101091.00;;;;4926507;28;93970;-65
2023/08/20 06:42:57;;;;;;;4.32;3.13;;;25.60;99.90;25.80;101096.00;;;;4925420;28;110831;-66
2023/08/20 06:45:22;;;;;;;3.15;2.85;;;25.60;99.90;25.80;101106.00;;;;4929148;28;107946;-65
2023/08/20 06:47:48;;;;;;;5.57;3.63;;;25.60;99.90;25.70;101100.00;;;;4925300;28;123307;-66
2023/08/20 06:50:14;;;;;;;8.27;4.15;;;25.50;99.90;25.70;101094.00;;;;4926074;28;123062;-66
2023/08/20 06:52:39;;;;;;;3.72;2.80;;;25.50;99.90;25.70;101090.00;;;;4926430;28;108797;-67
2023/08/20 06:55:05;;;;;;;4.68;3.00;;;25.50;99.90;25.70;101105.00;;;;4926214;28;108774;-66
2023/08/20 06:57:31;;;;;;;5.13;2.85;;;25.40;99.90;25.70;101093.00;;;;4927024;28;107220;-66
2023/08/20 06:59:57;;;;;;;4.68;3.20;;;25.40;99.90;25.70;101112.00;;;;4927026;28;93132;-65
2023/08/20 07:02:22;;;;;;;2.92;2.58;;;25.40;99.90;25.70;101117.00;;;;4927184;28;93067;-65
2023/08/20 07:04:48;;;;;;;3.50;2.63;;;25.40;99.90;25.70;101121.00;;;;4927413;28;93848;-65
2023/08/20 07:07:14;;;;;;;4.47;3.40;;;25.40;99.90;25.70;101128.00;;;;4923477;28;121805;-66
2023/08/20 07:09:40;;;;;;;3.97;3.13;;;25.40;99.90;25.60;101120.00;;;;4926714;28;93208;-65
2023/08/20 07:12:06;;;;;;;3.90;3.50;;;25.40;99.90;25.60;101129.00;;;;4925771;28;110870;-66
2023/08/20 07:14:32;;;;;;;3.97;3.42;;;25.30;99.90;25.50;101133.00;;;;4927037;28;99242;-65
2023/08/20 07:16:59;;;;;;;3.63;2.83;;;25.30;99.90;25.50;101123.00;;;;4927028;28;123880;-66
2023/08/20 07:19:25;;;;;;;3.10;2.60;;;25.20;99.90;25.40;101138.00;;;;4926426;28;93138;-66
2023/08/20 07:21:51;;;;;;;4.88;3.05;;;25.20;99.90;25.40;101142.00;;;;4917257;28;92351;-66
2023/08/20 07:24:16;;;;;;;3.60;3.20;;;25.20;99.90;25.40;101142.00;;;;4929558;28;107068;-64
2023/08/20 07:26:42;;;;;;;2.90;2.58;;;25.20;99.90;25.40;101135.00;;;;4925472;28;94102;-66
2023/08/20 07:29:08;;;;;;;4.30;2.95;;;25.20;99.90;25.40;101133.00;;;;4924423;28;93881;-65
2023/08/20 07:31:33;;;;;;;4.85;3.65;;;25.20;99.90;25.40;101132.00;;;;4927420;28;101258;-65
2023/08/20 07:34:02;;;;;;;4.75;3.35;;;25.20;99.90;25.40;101133.00;;;;4926107;28;93481;-65
2023/08/20 07:36:28;;;;;;;4.75;2.90;;;25.20;99.90;25.40;101140.00;;;;4926625;28;93908;-66
2023/08/20 07:38:55;;;;;;;4.47;3.38;;;25.20;99.90;25.30;101139.00;;;;4929357;28;120755;-66
2023/08/20 07:41:21;;;;;;;3.40;2.90;;;25.10;99.90;25.30;101145.00;;;;4930542;28;93235;-67
2023/08/20 07:43:48;;;;;;;4.45;3.03;;;25.10;99.90;25.20;101142.00;;;;4928621;28;93194;-66
2023/08/20 07:46:15;;;;;;;3.63;2.65;;;25.00;99.90;25.10;101153.00;;;;4928889;28;92978;-66
2023/08/20 07:48:42;;;;;;;4.47;3.30;;;24.90;99.90;25.00;101163.00;;;;4928868;28;93254;-66
2023/08/20 07:51:08;;;;;;;3.92;2.90;;;24.80;99.90;25.00;101164.00;;;;4930581;28;93143;-64
2023/08/20 07:53:34;;;;;;;5.68;3.83;;;24.80;99.90;25.00;101164.00;;;;4929825;28;94596;-64
2023/08/20 07:56:00;;;;;;;6.05;4.03;;;24.80;99.90;25.00;101158.00;;;;4927166;28;114928;-66
2023/08/20 07:58:27;;;;;;;5.20;4.07;;;24.80;99.90;25.10;101166.00;;;;4930391;28;93026;-65
2023/08/20 08:00:52;;;;;;;7.35;3.22;;;24.80;99.90;25.10;101164.00;;;;4931476;28;93162;-65
2023/08/20 08:03:18;;;;;;;5.25;3.78;;;24.80;99.90;25.20;101171.00;;;;4931850;28;107877;-65
2023/08/20 08:05:50;;;;;;;5.50;3.28;;;24.90;99.90;25.20;101176.00;;;;4931957;28;122238;-66
2023/08/20 08:08:17;;;;;;;4.95;3.50;;;25.00;99.90;25.30;101174.00;;;;4928746;28;113323;-65
2023/08/20 08:10:44;;;;;;;5.90;3.75;;;25.00;99.90;25.40;101169.00;;;;4928618;28;97158;-66
2023/08/20 08:13:12;;;;;;;5.70;4.32;;;25.10;99.90;25.60;101183.00;;;;4929156;28;93136;-66
2023/08/20 08:15:38;;;;;;;3.58;3.22;;;25.20;99.90;25.70;101187.00;;;;4929571;28;93662;-67
2023/08/20 08:18:04;;;;;;;9.25;4.25;;;25.40;99.90;25.80;101190.00;;;;4926665;28;94041;-65
2023/08/20 08:20:30;;;;;;;4.57;4.15;;;25.50;99.90;25.90;101188.00;;;;4929465;28;102667;-66
2023/08/20 08:22:55;;;;;;;5.63;3.90;;;25.60;99.90;26.00;101199.00;;;;4928610;28;107905;-67
2023/08/20 08:25:28;;;;;;;3.97;3.47;;;25.70;99.90;26.00;101199.00;;;;4924106;28;121334;-65
2023/08/20 08:27:53;;;;;;;4.00;3.05;;;25.70;99.90;26.00;101197.00;;;;4926725;28;123549;-66
2023/08/20 08:30:19;;;;;;;4.80;4.10;;;25.80;99.90;26.20;101205.00;;;;4927982;28;110743;-66
2023/08/20 08:32:45;;;;;;;5.82;3.85;;;25.90;99.90;26.40;101201.00;;;;4925246;28;93334;-66
2023/08/20 08:35:11;;;;;;;6.45;4.05;;;26.10;99.90;26.70;101194.00;;;;4929927;28;121750;-66
2023/08/20 08:37:37;;;;;;;7.50;4.80;;;26.30;99.90;27.10;101192.00;;;;4927645;28;120608;-66
2023/08/20 08:40:06;;;;;;;6.15;3.45;;;26.70;99.90;27.40;101202.00;;;;4927688;28;92973;-66
2023/08/20 08:42:33;;;;;;;5.70;3.80;;;27.00;99.90;27.60;101212.00;;;;4928629;28;93964;-66
2023/08/20 08:45:00;;;;;;;5.63;4.22;;;27.20;99.90;27.80;101203.00;;;;4904104;28;121912;-66
2023/08/20 08:47:26;;;;;;;4.55;3.78;;;27.40;99.90;27.80;101210.00;;;;4937295;28;93727;-66
2023/08/20 08:49:54;;;;;;;5.10;3.90;;;27.50;99.90;27.70;101215.00;;;;4929563;28;93296;-66
2023/08/20 08:52:25;;;;;;;6.32;4.13;;;27.50;99.90;27.60;101213.00;;;;4932570;28;92904;-66
2023/08/20 08:54:52;;;;;;;4.68;3.92;;;27.30;99.90;27.40;101215.00;;;;4929489;28;93307;-65
2023/08/20 08:57:18;;;;;;;5.15;4.05;;;27.20;99.90;27.30;101210.00;;;;4926866;28;93674;-65
2023/08/20 08:59:44;;;;;;;4.15;3.70;;;27.10;99.90;27.20;101211.00;;;;4908513;28;92188;-66
2023/08/20 09:02:12;;;;;;;8.13;3.92;;;27.00;99.90;27.10;101212.00;;;;4935674;28;108604;-66
2023/08/20 09:04:53;;;;;;;4.13;3.30;;;26.90;99.90;27.10;101215.00;;;;4925770;28;114552;-65
2023/08/20 09:07:19;;;;;;;6.72;3.08;;;26.90;99.90;27.10;101220.00;;;;4939409;28;94084;-66
2023/08/20 09:09:46;;;;;;;4.53;3.17;;;26.80;99.90;27.00;101227.00;;;;4926411;28;110072;-66
2023/08/20 09:12:19;;;;;;;3.38;3.05;;;26.80;99.90;27.00;101210.00;;;;4928028;28;93167;-65
2023/08/20 09:14:52;;;;;;;5.40;4.38;;;26.80;99.90;27.00;101212.00;;;;4928815;28;101630;-66
2023/08/20 09:17:19;;;;;;;4.13;3.33;;;26.70;99.90;26.90;101220.00;;;;4928358;28;92833;-64
2023/08/20 09:19:45;;;;;;;5.22;3.85;;;26.70;99.90;26.90;101222.00;;;;4929848;28;93119;-65
2023/08/20 09:22:13;;;;;;;4.40;3.65;;;26.60;99.90;26.80;101227.00;;;;4928739;28;108892;-66
2023/08/20 09:24:46;;;;;;;5.50;4.47;;;26.60;99.90;26.80;101234.00;;;;4929730;28;93172;-65
2023/08/20 09:27:15;;;;;;;5.85;4.32;;;26.50;99.90;26.70;101224.00;;;;4925380;28;94532;-65
2023/08/20 09:29:48;;;;;;;8.70;4.22;;;26.50;99.90;26.70;101236.00;;;;4927394;28;111478;-66
2023/08/20 09:32:23;;;;;;;4.20;3.75;;;26.50;99.90;26.70;101234.00;;;;4925562;28;94013;-67
2023/08/20 09:34:50;;;;;;;5.28;3.28;;;26.40;99.90;26.70;101226.00;;;;4925317;28;92961;-65
2023/08/20 09:37:18;;;;;;;4.70;4.18;;;26.40;99.90;26.80;101234.00;;;;4927683;28;93527;-67
2023/08/20 09:39:44;;;;;;;5.43;3.80;;;25.90;99.90;26.90;101225.00;;;;4928616;28;92904;-66
2023/08/20 09:42:11;;;;;;;12.55;4.68;;;26.60;99.90;27.00;101224.00;;;;4925776;28;107500;-66
2023/08/20 09:44:40;;;;;;;5.40;4.90;;;26.70;99.90;26.80;101226.00;;;;4928592;28;93554;-69
2023/08/20 09:47:12;;;;;;;5.95;5.35;;;26.60;99.90;26.60;101214.00;;;;4929294;28;93989;-68
2023/08/20 09:49:40;;;;;;;5.75;4.13;;;26.40;99.90;26.40;101214.00;;;;4927424;28;92242;-67
2023/08/20 09:52:09;;;;;;;5.15;4.50;;;26.20;99.90;26.30;101220.00;;;;4915030;27;93094;-67
2023/08/20 09:55:03;;;;;;;5.05;4.03;;;26.10;99.90;26.40;101229.00;;;;4925159;28;93674;-67
2023/08/20 09:57:37;;;;;;;6.95;4.43;;;26.10;99.90;26.70;101219.00;;;;4922933;28;111221;-65
2023/08/20 10:00:10;;;;;;;5.50;4.60;;;26.30;99.90;27.10;101232.00;;;;4927036;28;93129;-66
2023/08/20 10:02:38;;;;;;;6.47;4.25;;;26.60;99.90;27.60;101227.00;;;;4924020;28;93187;-65
2023/08/20 10:05:06;;;;;;;5.30;3.50;;;27.00;99.90;28.10;101224.00;;;;4928448;28;92881;-67
2023/08/20 10:07:32;;;;;;;4.43;3.75;;;27.50;99.90;28.60;101212.00;;;;4927108;28;93663;-67
2023/08/20 10:10:00;;;;;;;4.95;3.55;;;28.00;99.90;29.10;101213.00;;;;4926118;28;98559;-66
2023/08/20 10:12:28;;;;;;;5.05;3.60;;;28.50;99.90;29.60;101195.00;;;;4924710;28;93130;-67
2023/08/20 10:14:55;;;;;;;4.50;3.70;;;29.00;99.90;30.00;101205.00;;;;4928904;28;93001;-67
2023/08/20 10:17:25;;;;;;;5.78;4.18;;;29.30;99.90;30.30;101204.00;;;;4924331;28;94641;-65
2023/08/20 10:19:52;;;;;;;3.75;3.03;;;29.70;99.90;30.70;101204.00;;;;4928928;28;93017;-66
2023/08/20 10:22:18;;;;;;;4.82;3.33;;;30.10;99.90;31.20;101211.00;;;;4927283;28;93780;-66
2023/08/20 10:24:50;;;;;;;9.38;3.20;;;30.50;99.90;31.80;101209.00;;;;4923648;28;123017;-65
2023/08/20 10:27:29;;;;;;;5.43;4.05;;;31.00;99.20;32.30;101205.00;;;;4925242;28;93539;-65
2023/08/20 10:29:55;;;;;;;6.10;3.63;;;31.50;98.20;32.80;101203.00;;;;4929285;28;93103;-66
2023/08/20 10:32:43;;;;;;;5.32;2.65;;;32.00;97.00;33.00;101192.00;;;;4926277;28;93162;-66
2023/08/20 10:35:09;;;;;;;3.72;2.95;;;32.30;94.00;33.10;101191.00;;;;4926316;28;104847;-66
2023/08/20 10:37:37;;;;;;;4.03;3.28;;;32.40;93.50;33.20;101189.00;;;;4924325;28;121993;-65
2023/08/20 10:40:04;;;;;;;4.20;2.40;;;32.50;93.10;33.50;101192.00;;;;4926363;28;92520;-65
2023/08/20 10:42:30;;;;;;;4.68;3.25;;;32.70;92.30;33.90;101185.00;;;;4924161;28;93040;-65